• Join FlightAware (Why Join?)
  • Login
  • US Flag 
04:47PM EDT


 

Airport Tracker/Info


-or-


 

Live Flight TrackerFlight Track Log ✈ TAM3544 ✈ 08-Sep-2013 ✈ SBGR / GRU - SBBE / BEL

Flight Track Log - Related Links

Times and Time Zones

All times are in EDT time to prevent confusion due to time zone crossing. See the TAM3544 flight status page for this flight to view local times or setup timezone preferences in your user account.

Time Position Orientation Groundspeed Altitude Reporting Facility
EDT Latitude Longitude Course Direction KTS MPH feet Rate Location/Type
09:13PM -23.4320 -46.4750 90° East 115 132  Level FlightAware
09:13PM -23.4290 -46.4630 75° East 170 196 4,980 Level FlightAware
09:14PM -23.4240 -46.4460 72° East 166 191 3,000 5,460 Climbing FlightAware
09:14PM -23.4210 -46.4330 76° East 181 208 3,300 900 Climbing FlightAware
09:14PM -23.4140 -46.4100 72° East 210 242 3,600 720 Climbing FlightAware
09:14PM -23.4090 -46.3930 72° East 232 267 3,800 780 Climbing FlightAware
09:15PM -23.4030 -46.3750 70° East 253 291 4,100 2,280 Climbing FlightAware
09:15PM -23.3910 -46.3340 72° East 254 292 5,700 2,820 Climbing FlightAware
09:16PM -23.3830 -46.3100 70° East 262 302 6,400 1,920 Climbing FlightAware
09:16PM -23.3750 -46.2840 71° East 277 319 7,000 1,800 Climbing FlightAware
09:16PM -23.3680 -46.2620 71° East 289 333 7,500 1,800 Climbing FlightAware
09:16PM -23.3610 -46.2520 53° Northeast 289 333 7,800 2,100 Climbing FlightAware
09:17PM -23.3480 -46.2420 35° Northeast 289 333 8,200 2,400 Climbing FlightAware
09:17PM -23.3400 -46.2400 13° North 286 329 8,400 3,840 Climbing FlightAware
09:17PM -23.3150 -46.2340 12° North 266 306 9,800 2,940 Climbing FlightAware
09:18PM -23.2730 -46.2230 14° North 270 311 11,100 1,740 Climbing FlightAware
09:18PM -23.2200 -46.2070 16° North 304 350 12,000 1,080 Climbing FlightAware
09:19PM -23.1800 -46.1960 14° North 329 379 12,400 780 Climbing FlightAware
09:19PM -23.1230 -46.1800 14° North 353 406 12,900 1,380 Climbing FlightAware
09:20PM -23.0450 -46.1800 360° North 377 434 14,300 1,800 Climbing FlightAware
09:21PM -22.9920 -46.1900 350° North 376 433 15,200 1,920 Climbing FlightAware
09:21PM -22.9310 -46.2000 351° North 378 435 16,400 1,920 Climbing FlightAware
09:22PM -22.8700 -46.2110 351° North 391 450 17,500 2,040 Climbing FlightAware
09:22PM -22.7970 -46.2230 351° North 387 445 19,000 1,980 Climbing FlightAware
09:23PM -22.7320 -46.2340 351° North 395 455 20,000 1,740 Climbing FlightAware
09:23PM -22.6780 -46.2440 350° North 394 453 20,900 1,260 Climbing FlightAware
09:24PM -22.6140 -46.2550 351° North 409 471 21,400 1,260 Climbing FlightAware
09:25PM -22.5460 -46.2660 352° North 411 473 22,400 1,440 Climbing FlightAware
09:25PM -22.4720 -46.2790 351° North 410 472 23,200 1,260 Climbing FlightAware
09:26PM -22.4130 -46.2890 351° North 423 487 23,900 1,080 Climbing FlightAware
09:26PM -22.3360 -46.3020 351° North 426 490 24,500 1,320 Climbing FlightAware
09:27PM -22.2650 -46.3140 351° North 421 484 25,600 1,380 Climbing FlightAware
09:28PM -22.2080 -46.3240 351° North 426 490 26,000 900 Climbing FlightAware
09:28PM -22.1370 -46.3360 351° North 440 506 26,600 1,020 Climbing FlightAware
09:29PM -22.0680 -46.3480 351° North 444 511 27,200 1,080 Climbing FlightAware
09:29PM -21.9940 -46.3620 350° North 445 512 27,900 1,020 Climbing FlightAware
09:30PM -21.9120 -46.3780 350° North 444 511 28,500 840 Climbing FlightAware
09:31PM -21.8490 -46.3880 352° North 456 525 28,900 780 Climbing FlightAware
09:31PM -21.7680 -46.4010 352° North 459 528 29,400 780 Climbing FlightAware
09:32PM -21.6920 -46.4130 352° North 464 534 29,900 1,020 Climbing FlightAware
09:32PM -21.6220 -46.4250 351° North 459 528 30,600 1,320 Climbing FlightAware
09:33PM -21.5550 -46.4360 351° North 452 520 31,400 1,200 Climbing FlightAware
09:33PM -21.4810 -46.4480 351° North 451 519 32,000 900 Climbing FlightAware
09:34PM -21.4140 -46.4590 351° North 450 518 32,500 1,200 Climbing FlightAware
09:35PM -21.3410 -46.4710 351° North 440 506 33,400 1,080 Climbing FlightAware
09:35PM -21.2670 -46.4830 351° North 442 509 33,800 540 Climbing FlightAware
09:36PM -21.1900 -46.4960 351° North 446 513 34,100 360 Climbing FlightAware
09:36PM -21.1130 -46.5080 352° North 451 519 34,300 660 Climbing FlightAware
09:37PM -21.0460 -46.5190 351° North 445 512 34,900 540 Climbing FlightAware
09:38PM -20.9620 -46.5330 351° North 434 499 35,000 60 Climbing FlightAware
09:38PM -20.8910 -46.5440 352° North 434 499 35,000  Level FlightAware
09:39PM -20.8290 -46.5540 351° North 434 499 35,000  Level FlightAware
09:39PM -20.7510 -46.5670 351° North 431 496 35,000  Level FlightAware
09:40PM -20.6860 -46.5770 352° North 428 493 35,000  Level FlightAware
09:41PM -20.6180 -46.5890 351° North 424 488 35,000  Level FlightAware
09:41PM -20.5470 -46.6000 352° North 422 486 35,000  Level FlightAware
09:42PM -20.4830 -46.6110 351° North 420 483 35,000  Level FlightAware
09:42PM -20.4070 -46.6250 350° North 420 483 35,000  Level FlightAware
09:43PM -20.3490 -46.6360 350° North 421 484 35,000  Level FlightAware
09:44PM -20.2770 -46.6490 350° North 421 484 35,000  Level FlightAware
09:44PM -20.2050 -46.6620 350° North 422 486 35,000  Level FlightAware
09:45PM -20.1360 -46.6740 351° North 421 484 35,000  Level FlightAware
09:45PM -20.0730 -46.6860 350° North 423 487 35,000  Level FlightAware
09:46PM -20.0020 -46.6990 350° North 423 487 35,000  Level FlightAware
09:46PM -19.9360 -46.7110 350° North 423 487 35,000  Level FlightAware
09:47PM -19.8630 -46.7240 350° North 423 487 35,000  Level FlightAware
09:48PM -19.8040 -46.7340 351° North 423 487 35,000  Level FlightAware
09:48PM -19.7300 -46.7480 350° North 422 486 35,000  Level FlightAware
09:49PM -19.6630 -46.7600 350° North 421 484 35,000  Level FlightAware
09:49PM -19.6020 -46.7710 350° North 418 481 35,000  Level FlightAware
09:50PM -19.5350 -46.7830 350° North 416 479 35,000  Level FlightAware
09:51PM -19.4640 -46.7960 350° North 416 479 35,000  Level FlightAware
09:51PM -19.3980 -46.8080 350° North 416 479 35,000  Level FlightAware
09:52PM -19.3290 -46.8200 351° North 415 478 35,000  Level FlightAware
09:52PM -19.2650 -46.8310 351° North 414 476 35,000  Level FlightAware
09:53PM -19.1970 -46.8430 351° North 415 478 35,000  Level FlightAware
09:53PM -19.1270 -46.8540 352° North 416 479 35,000  Level FlightAware
09:54PM -19.0670 -46.8630 352° North 416 479 35,000  Level FlightAware
09:55PM -18.9980 -46.8740 351° North 417 480 35,000  Level FlightAware
09:55PM -18.9280 -46.8850 352° North 416 479 35,000  Level FlightAware
09:56PM -18.8630 -46.8950 352° North 416 479 35,000  Level FlightAware
09:56PM -18.7980 -46.9060 351° North 414 476 35,000  Level FlightAware
09:57PM -18.7280 -46.9190 350° North 414 476 35,000  Level FlightAware
09:57PM -18.6670 -46.9300 350° North 416 479 35,000  Level FlightAware
09:58PM -18.5990 -46.9420 351° North 416 479 35,000  Level FlightAware
09:59PM -18.5380 -46.9530 350° North 416 479 35,000  Level FlightAware
09:59PM -18.4730 -46.9640 351° North 416 479 35,000  Level FlightAware
10:00PM -18.3910 -46.9790 350° North 417 480 35,000  Level FlightAware
10:01PM -18.3160 -46.9920 351° North 416 479 35,000  Level FlightAware
10:01PM -18.2620 -47.0020 350° North 416 479 35,000  Level FlightAware
10:02PM -18.1920 -47.0140 351° North 416 479 35,000  Level FlightAware
10:02PM -18.1160 -47.0280 350° North 416 479 35,000  Level FlightAware
10:03PM -18.0450 -47.0400 351° North 416 479 35,000  Level FlightAware
10:03PM -17.9840 -47.0510 350° North 416 479 35,000  Level FlightAware
10:04PM -17.9170 -47.0630 350° North 416 479 35,000  Level FlightAware
10:05PM -17.8470 -47.0750 351° North 416 479 35,000  Level FlightAware
10:05PM -17.7810 -47.0870 350° North 415 478 35,000  Level FlightAware
10:06PM -17.7130 -47.0990 350° North 415 478 35,000  Level FlightAware
10:06PM -17.6400 -47.1110 351° North 415 478 35,000  Level FlightAware
10:07PM -17.5770 -47.1220 351° North 415 478 35,000  Level FlightAware
10:08PM -17.5090 -47.1340 350° North 416 479 35,000  Level FlightAware
10:08PM -17.4490 -47.1450 350° North 417 480 35,000  Level FlightAware
10:09PM -17.3670 -47.1600 350° North 418 481 35,000  Level FlightAware
10:09PM -17.3010 -47.1710 351° North 421 484 35,000  Level FlightAware
10:10PM -17.2330 -47.1830 350° North 422 486 35,000  Level FlightAware
10:10PM -17.1820 -47.1920 350° North 421 484 35,000  Level FlightAware
10:11PM -17.0900 -47.2080 351° North 418 481 35,000  Level FlightAware
10:12PM -17.0250 -47.2190 351° North 417 480 35,000  Level FlightAware
10:12PM -16.9610 -47.2310 350° North 416 479 35,000  Level FlightAware
10:13PM -16.9030 -47.2410 351° North 416 479 35,000  Level FlightAware
10:14PM -16.8450 -47.2520 350° North 416 479 35,000  Level FlightAware
10:14PM -16.7850 -47.2630 350° North 416 479 35,000  Level FlightAware
10:15PM -16.7270 -47.2740 350° North 416 479 35,000 600 Level FlightAware
10:15PM -16.6060 -47.2920 352° North 420 483 35,700 840 Climbing FlightAware
10:16PM -16.5410 -47.3030 351° North 421 484 36,000 180 Climbing FlightAware
10:17PM -16.4610 -47.3170 350° North 421 484 36,000  Level FlightAware
10:17PM -16.3750 -47.3320 350° North 420 483 36,000  Level FlightAware
10:18PM -16.3270 -47.3400 351° North 420 483 36,000  Level FlightAware
10:18PM -16.2610 -47.3520 350° North 420 483 36,000  Level FlightAware
10:19PM -16.1920 -47.3640 351° North 419 482 36,000  Level FlightAware
10:20PM -16.1260 -47.3750 351° North 419 482 36,000  Level FlightAware
10:20PM -16.0580 -47.3870 350° North 418 481 36,000  Level FlightAware
10:21PM -15.9930 -47.3980 351° North 419 482 36,000  Level FlightAware
10:21PM -15.9340 -47.4080 351° North 420 483 36,000  Level FlightAware
10:22PM -15.8660 -47.4200 350° North 421 484 36,000  Level FlightAware
10:22PM -15.8000 -47.4320 350° North 422 486 36,000  Level FlightAware
10:23PM -15.7310 -47.4430 351° North 424 488 36,000  Level FlightAware
10:24PM -15.6550 -47.4570 350° North 423 487 36,000  Level FlightAware
10:24PM -15.5860 -47.4680 351° North 423 487 36,000  Level FlightAware
10:25PM -15.5210 -47.4800 350° North 423 487 36,000  Level FlightAware
10:25PM -15.4510 -47.4920 351° North 423 487 36,000  Level FlightAware
10:26PM -15.3850 -47.5030 351° North 423 487 36,000  Level FlightAware
10:27PM -15.3150 -47.5150 351° North 424 488 36,000  Level FlightAware
10:27PM -15.2520 -47.5260 350° North 424 488 36,000  Level FlightAware
10:28PM -15.1800 -47.5380 351° North 425 489 36,000  Level FlightAware
10:28PM -15.1150 -47.5490 351° North 426 490 36,000  Level FlightAware
10:29PM -15.0150 -47.5660 351° North 428 493 36,000  Level FlightAware
10:30PM -14.9450 -47.5780 351° North 429 494 36,000  Level FlightAware
10:30PM -14.8770 -47.5900 350° North 430 495 36,000  Level FlightAware
10:31PM -14.8080 -47.6020 350° North 431 496 36,000  Level FlightAware
10:32PM -14.7410 -47.6130 351° North 431 496 36,000  Level FlightAware
10:32PM -14.6700 -47.6250 351° North 431 496 36,000  Level FlightAware
10:33PM -14.6010 -47.6370 350° North 431 496 36,000  Level FlightAware
10:33PM -14.5320 -47.6490 350° North 431 496 36,000  Level FlightAware
10:34PM -14.4620 -47.6600 351° North 430 495 36,000  Level FlightAware
10:35PM -14.3850 -47.6740 350° North 431 496 36,000  Level FlightAware
10:35PM -14.3230 -47.6850 350° North 430 495 36,000  Level FlightAware
10:36PM -14.2630 -47.6950 351° North 430 495 36,000  Level FlightAware
10:36PM -14.1820 -47.7080 351° North 430 495 36,000  Level FlightAware
10:37PM -14.1180 -47.7190 351° North 430 495 36,000  Level FlightAware
10:37PM -14.0500 -47.7310 350° North 430 495 36,000  Level FlightAware
10:38PM -13.9590 -47.7470 350° North 430 495 36,000  Level FlightAware
10:39PM -13.8990 -47.7570 351° North 430 495 36,000  Level FlightAware
10:39PM -13.8390 -47.7680 350° North 430 495 36,000  Level FlightAware
10:40PM -13.7790 -47.7790 350° North 430 495 36,000  Level FlightAware
10:41PM -13.7190 -47.7900 350° North 430 495 36,000  Level FlightAware
10:41PM -13.6570 -47.8010 350° North 430 495 36,000  Level FlightAware
10:42PM -13.5980 -47.8120 350° North 430 495 36,000  Level FlightAware
10:43PM -13.5360 -47.8230 350° North 430 495 36,000  Level FlightAware
10:43PM -13.4760 -47.8340 350° North 430 495 36,000  Level FlightAware
10:44PM -13.4140 -47.8450 350° North 430 495 36,000  Level FlightAware
10:44PM -13.3540 -47.8560 350° North 430 495 36,000  Level FlightAware
10:45PM -13.2940 -47.8670 350° North 430 495 36,000  Level FlightAware
10:46PM -13.2340 -47.8780 350° North 430 495 36,000  Level FlightAware
10:46PM -13.1750 -47.8890 350° North 430 495 36,000  Level FlightAware
10:47PM -13.1150 -47.9000 350° North 430 495 36,000  Level FlightAware
10:47PM -13.0530 -47.9110 350° North 430 495 36,000  Level FlightAware
10:50PM -12.8074 -47.9233 357° North  Level Estimated
10:51PM -12.6940 -47.9289 357° North  Level Estimated
10:52PM -12.5806 -47.9346 357° North  Level Estimated
10:53PM -12.4672 -47.9402 357° North  Level Estimated
10:54PM -12.3538 -47.9459 357° North  Level Estimated
10:55PM -12.2404 -47.9515 357° North  Level Estimated
10:56PM -12.1271 -47.9572 357° North  Level Estimated
10:57PM -12.0137 -47.9628 357° North  Level Estimated
10:58PM -11.9003 -47.9684 357° North  Level Estimated
10:59PM -11.7869 -47.9740 357° North  Level Estimated
11:00PM -11.6735 -47.9797 357° North  Level Estimated
11:01PM -11.5602 -47.9853 357° North  Level Estimated
11:02PM -11.4468 -47.9909 357° North  Level Estimated
11:03PM -11.3334 -47.9965 357° North  Level Estimated
11:04PM -11.2200 -48.0021 357° North  Level Estimated
11:05PM -11.1067 -48.0077 357° North  Level Estimated
11:06PM -10.9933 -48.0133 357° North  Level Estimated
11:07PM -10.8799 -48.0188 357° North  Level Estimated
11:08PM -10.7665 -48.0244 357° North  Level Estimated
11:09PM -10.6531 -48.0300 357° North  Level Estimated
11:10PM -10.5398 -48.0356 357° North  Level Estimated
11:11PM -10.4264 -48.0411 357° North  Level Estimated
11:12PM -10.3130 -48.0467 357° North  Level Estimated
11:13PM -10.1996 -48.0523 357° North  Level Estimated
11:14PM -10.0862 -48.0578 357° North  Level Estimated
11:15PM -9.9728 -48.0634 357° North  Level Estimated
11:16PM -9.8595 -48.0689 357° North  Level Estimated
11:17PM -9.7461 -48.0745 357° North  Level Estimated
11:18PM -9.6327 -48.0800 357° North  Level Estimated
11:19PM -9.5193 -48.0855 357° North  Level Estimated
11:20PM -9.4059 -48.0911 357° North  Level Estimated
11:21PM -9.2926 -48.0966 357° North  Level Estimated
11:22PM -9.1792 -48.1021 357° North  Level Estimated
11:23PM -9.0658 -48.1077 357° North  Level Estimated
11:24PM -8.9524 -48.1132 357° North  Level Estimated
11:25PM -8.8391 -48.1187 357° North  Level Estimated
11:26PM -8.7257 -48.1242 357° North  Level Estimated
11:27PM -8.6123 -48.1297 357° North  Level Estimated
11:28PM -8.4989 -48.1352 357° North  Level Estimated
11:29PM -8.3855 -48.1407 357° North  Level Estimated
11:30PM -8.2722 -48.1462 357° North  Level Estimated
11:31PM -8.1588 -48.1517 357° North  Level Estimated
11:32PM -8.0454 -48.1572 357° North  Level Estimated
11:33PM -7.9320 -48.1627 357° North  Level Estimated
11:34PM -7.8186 -48.1682 357° North  Level Estimated
11:35PM -7.7052 -48.1737 357° North  Level Estimated
11:36PM -7.5919 -48.1792 357° North  Level Estimated
11:37PM -7.4785 -48.1846 357° North  Level Estimated
11:38PM -7.3651 -48.1901 357° North  Level Estimated
11:39PM -7.2517 -48.1956 357° North  Level Estimated
11:40PM -7.1384 -48.2011 357° North  Level Estimated
11:41PM -7.0250 -48.2065 357° North  Level Estimated
11:42PM -6.9116 -48.2120 357° North  Level Estimated
11:43PM -6.7982 -48.2174 357° North  Level Estimated
11:44PM -6.6848 -48.2229 357° North  Level Estimated
11:45PM -6.5715 -48.2284 357° North  Level Estimated
11:46PM -6.4581 -48.2338 357° North  Level Estimated
11:47PM -6.3447 -48.2393 357° North  Level Estimated
11:48PM -6.2313 -48.2447 357° North  Level Estimated
11:49PM -6.1179 -48.2502 357° North  Level Estimated
11:50PM -6.0045 -48.2556 357° North  Level Estimated
11:51PM -5.8912 -48.2611 357° North  Level Estimated
11:52PM -5.7778 -48.2665 357° North  Level Estimated
11:53PM -5.6644 -48.2719 357° North  Level Estimated
11:54PM -5.5510 -48.2774 357° North  Level Estimated
11:55PM -5.4377 -48.2828 357° North  Level Estimated
11:56PM -5.3243 -48.2882 357° North  Level Estimated
11:57PM -5.2109 -48.2937 357° North  Level Estimated
11:58PM -5.0975 -48.2991 357° North  Level Estimated
11:59PM -4.9841 -48.3045 357° North  Level Estimated
12:00AM -4.8707 -48.3099 357° North  Level Estimated
12:01AM -4.7574 -48.3154 357° North  Level Estimated
12:02AM -4.6440 -48.3208 357° North  Level Estimated
12:03AM -4.5306 -48.3262 357° North  Level Estimated
12:04AM -4.4172 -48.3316 357° North  Level Estimated
12:05AM -4.3039 -48.3370 357° North  Level Estimated
12:06AM -4.1905 -48.3424 357° North  Level Estimated
12:07AM -4.0771 -48.3479 357° North  Level Estimated
12:08AM -3.9637 -48.3533 357° North  Level Estimated
12:09AM -3.8503 -48.3587 357° North  Level Estimated
12:10AM -3.7369 -48.3641 357° North  Level Estimated
12:11AM -3.6236 -48.3695 357° North  Level Estimated
12:12AM -3.5102 -48.3749 357° North  Level Estimated
12:13AM -3.3968 -48.3803 357° North  Level Estimated
12:14AM -3.2834 -48.3857 357° North  Level Estimated
12:15AM -3.1700 -48.3911 357° North  Level Estimated
12:16AM -3.0567 -48.3965 357° North  Level Estimated
12:17AM -2.9433 -48.4019 357° North  Level Estimated
12:18AM -2.8299 -48.4073 357° North  Level Estimated
12:19AM -2.7165 -48.4127 357° North  Level Estimated
12:20AM -2.6031 -48.4181 357° North  Level Estimated
12:21AM -2.4898 -48.4235 357° North  Level Estimated
12:22AM -2.3764 -48.4289 357° North  Level Estimated
12:23AM -2.2630 -48.4343 357° North  Level Estimated
12:24AM -2.1496 -48.4397 357° North  Level Estimated
12:25AM -2.0363 -48.4451 357° North  Level Estimated
12:26AM -1.9229 -48.4505 357° North  Level Estimated
12:27AM -1.8095 -48.4558 357° North  Level Estimated
12:28AM -1.6961 -48.4612 357° North  Level Estimated
12:29AM -1.5827 -48.4666 357° North  Level Estimated
12:30AM -1.4693 -48.4720 357° North  Level Estimated
12:31AM -1.3793 -48.4763 357° North  Level Estimated
12:32AM -1.3793 -48.4763 270° West  Level Estimated
12:33AM -1.3793 -48.4763 270° West  Level Estimated
12:34AM -1.3793 -48.4763 270° West  Level Estimated
12:35AM -1.3793 -48.4763 270° West  Level Estimated
12:36AM -1.3793 -48.4763 270° West  Level Estimated
12:37AM -1.3793 -48.4763 270° West  Level Estimated
12:38AM -1.3793 -48.4763 270° West  Level Estimated
12:39AM -1.3793 -48.4763 270° West  Level Estimated
12:40AM -1.3793 -48.4763 270° West  Level Estimated
12:41AM -1.3793 -48.4763 270° West  Level Estimated
12:42AM -1.3793 -48.4763 270° West  Level Estimated
12:43AM -1.3793 -48.4763 270° West  Level Estimated
12:44AM -1.3793 -48.4763 270° West  Level Estimated